Pelican, Wisconsin
Current Conditions -  °F | °C
As of 3:53 AM on Sunday 26 Oct 2014 (Local Time) from KRHI Reporting Station
Clear Clear  
Wind Chill: 26°   Ceiling: Unl
Heat Index: 32°   Visibility: 10mi
Dew Point: 24°   Wind: 7mph
Humidity: 73%   Direction: 270°W
Pressure: 29.96"   Gusts: NA
Location:  45.6521°N, 89.3386°W
Report Text: KRHI 260853Z AUTO 27006KT 10SM CLR 00/M04 A2996 RMK AO2 SLP154 T00001044 50002
Loading
Personal Weather Stations






























Interactive Weather Map
Tropical Storm Tracking
New forecast layout! Learn more

10-Day Weather Forecast

Advertisements
Track Severe Weather on mobile